Time;durP1;ratioP1;P1;durP2;ratioP2;P2;SDS_P1;SDS_P2;PMS_P1;PMS_P2;Temp;Humidity;BMP_temperature;BMP_pressure;BME280_temperature;BME280_humidity;BME280_pressure;Samples;Min_cycle;Max_cycle;Signal;HPM_P1;HPM_P2
2022/07/15 00:02:04;;;;;;;;;10.60;9.60;;;;;26.92;33.59;99191.09;5109477;27;8883;-79
2022/07/15 00:04:33;;;;;;;;;11.00;10.00;;;;;26.86;33.72;99186.19;5080203;28;9579;-78
2022/07/15 00:07:01;;;;;;;;;13.00;11.20;;;;;26.87;33.44;99195.09;5115043;28;8845;-77
2022/07/15 00:12:18;;;;;;;;;13.00;11.60;;;;;26.72;34.01;99178.34;5100151;28;8864;-79
2022/07/15 00:14:47;;;;;;;;;12.00;11.40;;;;;26.70;34.26;99180.28;5114167;28;8849;-77
2022/07/15 00:17:16;;;;;;;;;11.60;11.60;;;;;26.62;33.78;99178.16;5107122;28;8867;-78
2022/07/15 00:19:44;;;;;;;;;10.40;10.40;;;;;26.57;34.07;99186.47;5077542;27;8850;-77
2022/07/15 00:22:13;;;;;;;;;14.20;12.20;;;;;26.49;34.29;99180.84;5112646;28;8915;-77
2022/07/15 00:24:41;;;;;;;;;10.20;10.20;;;;;26.50;34.44;99187.88;5095716;28;8850;-78
2022/07/15 00:27:11;;;;;;;;;11.20;11.20;;;;;26.58;34.19;99185.53;5062056;28;9627;-76
2022/07/15 00:29:41;;;;;;;;;11.60;11.00;;;;;26.62;33.78;99195.06;5096011;28;8843;-78
2022/07/15 00:32:10;;;;;;;;;11.60;11.40;;;;;26.63;33.58;99182.53;5096402;28;8843;-76
2022/07/15 00:34:39;;;;;;;;;10.80;10.80;;;;;26.53;33.95;99182.31;5113506;28;8835;-77
2022/07/15 00:37:07;;;;;;;;;12.40;11.00;;;;;26.58;34.16;99182.84;5095079;28;8850;-77
2022/07/15 00:39:36;;;;;;;;;11.00;11.00;;;;;26.56;34.37;99187.44;5059191;28;8906;-79
2022/07/15 00:42:05;;;;;;;;;11.20;10.00;;;;;26.58;34.29;99179.31;5075873;28;8863;-79
2022/07/15 00:44:34;;;;;;;;;10.00;10.00;;;;;26.50;34.00;99179.00;5092486;28;8863;-79
2022/07/15 00:47:03;;;;;;;;;9.40;9.40;;;;;26.45;33.88;99179.34;5055459;28;8865;-77
2022/07/15 00:49:33;;;;;;;;;10.60;9.00;;;;;26.41;34.10;99173.38;5106369;28;9650;-78
2022/07/15 00:52:05;;;;;;;;;9.80;9.80;;;;;26.46;33.75;99178.38;5073357;28;8869;-77
2022/07/15 00:54:34;;;;;;;;;11.00;11.00;;;;;26.39;34.06;99171.75;5090260;28;8847;-78
2022/07/15 00:57:03;;;;;;;;;11.60;11.60;;;;;26.45;33.72;99174.00;5094421;28;8863;-78
2022/07/15 00:59:35;;;;;;;;;9.00;9.00;;;;;26.51;33.79;99175.38;5079044;28;8869;-76
2022/07/15 01:02:06;;;;;;;;;10.40;9.20;;;;;26.49;33.35;99170.13;5077308;28;8857;-76
2022/07/15 01:04:35;;;;;;;;;11.00;9.80;;;;;26.52;33.37;99169.94;5073943;28;9031;-77
2022/07/15 01:07:04;;;;;;;;;9.00;9.00;;;;;26.50;33.21;99166.47;5073222;28;8893;-77
2022/07/15 01:09:33;;;;;;;;;9.20;8.60;;;;;26.53;33.24;99165.44;5075718;28;8853;-77
2022/07/15 01:12:02;;;;;;;;;10.60;10.00;;;;;26.49;33.50;99158.59;5087952;28;8904;-77
2022/07/15 01:14:31;;;;;;;;;11.60;10.40;;;;;26.59;33.22;99162.28;5072822;28;8937;-77
2022/07/15 01:16:59;;;;;;;;;8.00;7.00;;;;;26.57;33.07;99161.56;5091945;28;8844;-79
2022/07/15 01:19:30;;;;;;;;;9.00;9.00;;;;;26.51;32.95;99151.31;5060706;28;8859;-77
2022/07/15 01:22:00;;;;;;;;;8.40;7.00;;;;;26.49;33.00;99163.94;5076736;28;8878;-77
2022/07/15 01:24:28;;;;;;;;;8.00;8.00;;;;;26.49;32.93;99162.13;5079344;28;8843;-80
2022/07/15 01:27:08;;;;;;;;;10.40;10.20;;;;;26.53;32.97;99165.44;5078494;28;8901;-77
2022/07/15 01:29:37;;;;;;;;;9.00;9.00;;;;;26.56;33.46;99157.16;5092381;28;8852;-77
2022/07/15 01:32:06;;;;;;;;;9.20;8.40;;;;;26.57;33.25;99150.84;5090977;28;8891;-77
2022/07/15 01:34:35;;;;;;;;;10.20;9.60;;;;;26.59;32.85;99148.91;5056782;28;8864;-79
2022/07/15 01:37:06;;;;;;;;;8.60;7.60;;;;;26.60;33.05;99148.00;5036502;28;8866;-76
2022/07/15 01:39:38;;;;;;;;;9.00;8.20;;;;;26.66;32.83;99142.19;5052791;28;8951;-79
2022/07/15 01:42:07;;;;;;;;;8.80;8.80;;;;;26.61;32.62;99137.16;5069359;28;8869;-78
2022/07/15 01:44:37;;;;;;;;;9.60;8.60;;;;;26.63;32.78;99132.59;5071926;28;8934;-80
2022/07/15 01:47:06;;;;;;;;;6.40;6.20;;;;;26.59;32.45;99125.72;5088354;28;8853;-77
2022/07/15 01:49:37;;;;;;;;;8.00;8.00;;;;;26.64;32.43;99120.06;5052956;28;8859;-80
2022/07/15 01:52:14;;;;;;;;;6.20;5.60;;;;;26.61;32.46;99117.59;5069549;28;8976;-78
2022/07/15 01:54:45;;;;;;;;;9.00;7.20;;;;;26.61;32.77;99122.94;5086044;28;8846;-78
2022/07/15 01:57:14;;;;;;;;;8.40;8.40;;;;;26.60;32.57;99129.28;5069200;28;8850;-77
2022/07/15 01:59:50;;;;;;;;;8.00;8.00;;;;;26.50;32.69;99126.38;5055595;28;9033;-77
2022/07/15 02:02:28;;;;;;;;;8.20;8.20;;;;;26.55;32.93;99131.41;5069186;28;8835;-78
2022/07/15 02:04:57;;;;;;;;;8.00;8.00;;;;;26.58;32.65;99125.84;5052730;28;9647;-78
2022/07/15 02:07:27;;;;;;;;;8.00;8.00;;;;;26.63;32.96;99126.34;5060898;28;8872;-78
2022/07/15 02:09:56;;;;;;;;;8.60;8.00;;;;;26.62;32.54;99122.00;5049080;28;8844;-78
2022/07/15 02:12:25;;;;;;;;;6.60;6.60;;;;;26.55;32.89;99110.00;5049000;28;8895;-79
2022/07/15 02:14:57;;;;;;;;;7.20;7.20;;;;;26.41;32.95;99109.19;5049253;28;8864;-77
2022/07/15 02:17:36;;;;;;;;;8.00;7.60;;;;;26.43;33.02;99107.25;5085231;28;8865;-77
2022/07/15 02:20:05;;;;;;;;;8.40;8.40;;;;;26.25;33.38;99103.25;5081871;28;8931;-78
2022/07/15 02:22:37;;;;;;;;;9.00;8.40;;;;;26.28;33.46;99095.00;4998181;28;8861;-79
2022/07/15 02:25:07;;;;;;;;;4.00;4.00;;;;;26.27;33.15;99098.63;5048631;28;8861;-77
2022/07/15 02:27:35;;;;;;;;;7.60;7.60;;;;;26.25;32.77;99098.75;5048728;28;8895;-77
2022/07/15 02:30:05;;;;;;;;;8.80;7.80;;;;;26.25;32.94;99103.25;5050497;28;8914;-79
2022/07/15 02:32:37;;;;;;;;;8.60;7.60;;;;;26.22;33.08;99100.81;5036865;28;8859;-78
2022/07/15 02:35:08;;;;;;;;;8.00;8.00;;;;;26.25;33.07;99089.88;5088737;28;8860;-79
2022/07/15 02:37:38;;;;;;;;;7.00;7.00;;;;;26.23;33.05;99092.66;5075976;28;8853;-79
2022/07/15 02:40:08;;;;;;;;;7.60;7.60;;;;;26.20;32.88;99090.22;5092158;28;8856;-79
2022/07/15 02:42:38;;;;;;;;;7.00;7.00;;;;;26.18;32.71;99080.59;5109247;28;8841;-78
2022/07/15 02:45:08;;;;;;;;;6.60;6.40;;;;;26.25;32.49;99087.22;5057884;28;8872;-77
2022/07/15 02:47:36;;;;;;;;;8.20;7.60;;;;;26.30;32.51;99095.75;5108305;28;8849;-78
2022/07/15 02:50:06;;;;;;;;;9.00;7.40;;;;;26.28;32.49;99099.53;5056145;28;8857;-81
2022/07/15 02:52:38;;;;;;;;;7.00;7.00;;;;;26.32;32.70;99099.16;5109140;28;8883;-78
2022/07/15 02:55:08;;;;;;;;;8.00;8.00;;;;;26.38;32.47;99100.53;5108227;28;8867;-78
2022/07/15 02:57:38;;;;;;;;;7.40;7.40;;;;;26.36;32.75;99103.31;5090420;28;8873;-78
2022/07/15 03:00:11;;;;;;;;;6.60;6.60;;;;;26.34;32.70;99107.94;5087774;28;8875;-77
2022/07/15 03:02:40;;;;;;;;;8.00;7.00;;;;;26.36;32.50;99111.34;5073044;28;8852;-79
2022/07/15 03:05:11;;;;;;;;;6.00;6.00;;;;;26.40;32.37;99109.31;5088110;28;8852;-78
2022/07/15 03:07:43;;;;;;;;;6.80;6.80;;;;;26.40;32.27;99107.47;5027976;28;8845;-78
2022/07/15 03:10:14;;;;;;;;;8.00;8.00;;;;;26.44;32.30;99106.28;5092463;28;8896;-78
2022/07/15 03:12:43;;;;;;;;;6.60;6.60;;;;;26.48;32.16;99108.75;5131684;27;8953;-78
2022/07/15 03:15:12;;;;;;;;;9.00;8.00;;;;;26.47;32.25;99104.38;5114399;28;8828;-79
2022/07/15 03:17:41;;;;;;;;;8.40;7.00;;;;;26.50;31.94;99107.66;5078714;28;8875;-79
2022/07/15 03:20:11;;;;;;;;;8.00;8.00;;;;;26.52;31.83;99104.88;5076574;28;8868;-78
2022/07/15 03:22:48;;;;;;;;;7.60;7.60;;;;;26.54;32.08;99106.47;5092195;28;8903;-78
2022/07/15 03:25:16;;;;;;;;;8.20;8.20;;;;;26.55;31.82;99110.84;5087389;28;8827;-79
2022/07/15 03:27:45;;;;;;;;;8.00;7.00;;;;;26.55;32.14;99107.31;5020516;28;8852;-78
2022/07/15 03:30:16;;;;;;;;;7.40;7.40;;;;;26.60;32.21;99105.22;5088243;28;8851;-78
2022/07/15 03:32:45;;;;;;;;;7.40;7.40;;;;;26.63;32.35;99097.81;5098634;28;8852;-78
2022/07/15 03:35:13;;;;;;;;;8.60;8.20;;;;;26.60;32.11;99091.84;5089934;28;8864;-77
2022/07/15 03:37:42;;;;;;;;;10.00;9.00;;;;;26.62;32.22;99096.09;5090824;28;8985;-78
2022/07/15 03:40:13;;;;;;;;;8.80;8.80;;;;;26.67;31.71;99106.44;5107983;28;8845;-78
2022/07/15 03:42:42;;;;;;;;;10.40;9.80;;;;;26.73;32.01;99102.44;5089456;28;8944;-78
2022/07/15 03:45:11;;;;;;;;;7.40;7.00;;;;;26.82;31.96;99109.78;5109335;28;8861;-76
2022/07/15 03:47:40;;;;;;;;;7.00;7.00;;;;;26.93;31.84;99109.00;5091090;28;8848;-77
2022/07/15 03:50:13;;;;;;;;;10.60;10.40;;;;;27.00;31.64;99103.06;5088155;28;8963;-78
2022/07/15 03:52:42;;;;;;;;;11.00;10.80;;;;;27.11;31.77;99101.38;5070889;28;8847;-76
2022/07/15 03:55:12;;;;;;;;;7.00;7.00;;;;;27.22;31.71;99110.31;5070772;28;8876;-77
2022/07/15 03:57:41;;;;;;;;;21.50;19.75;;;;;27.30;32.13;99099.06;5087411;28;8859;-78
2022/07/15 04:00:12;;;;;;;;;13.60;13.60;;;;;27.39;33.02;99102.81;5087298;28;8860;-76
2022/07/15 04:02:44;;;;;;;;;11.20;11.20;;;;;27.44;32.17;99108.69;5089273;28;8860;-78
2022/07/15 04:05:16;;;;;;;;;58.50;47.25;;;;;27.50;32.50;99113.56;5106187;28;8829;-77
2022/07/15 04:07:44;;;;;;;;;12.60;11.80;;;;;27.50;31.88;99112.72;5107559;28;8849;-76
2022/07/15 04:10:14;;;;;;;;;9.60;9.60;;;;;27.47;31.74;99116.50;5106241;28;8865;-76
2022/07/15 04:12:43;;;;;;;;;8.80;8.80;;;;;27.56;32.17;99122.94;5089389;28;8857;-79
2022/07/15 04:15:15;;;;;;;;;9.80;8.60;;;;;27.65;31.75;99116.03;5100531;28;8963;-76
2022/07/15 04:17:46;;;;;;;;;9.80;9.80;;;;;27.74;31.54;99117.97;5088445;28;8831;-78
2022/07/15 04:20:20;;;;;;;;;8.60;8.60;;;;;27.86;31.53;99118.84;5089212;28;8937;-78
2022/07/15 04:22:52;;;;;;;;;9.20;9.20;;;;;27.92;31.57;99123.72;5088803;28;8829;-75
2022/07/15 04:25:23;;;;;;;;;11.80;11.00;;;;;27.98;31.95;99118.75;5106686;28;8968;-76
2022/07/15 04:27:53;;;;;;;;;18.00;18.00;;;;;27.86;32.65;99121.50;5106369;28;8841;-76
2022/07/15 04:30:31;;;;;;;;;15.25;15.25;;;;;27.93;32.82;99128.13;5105700;28;8873;-75
2022/07/15 04:33:00;;;;;;;;;18.25;17.75;;;;;27.94;32.62;99129.81;5108319;28;8925;-76
2022/07/15 04:35:32;;;;;;;;;17.80;17.80;;;;;27.98;32.92;99132.16;5107355;28;8938;-75
2022/07/15 04:38:05;;;;;;;;;16.40;16.40;;;;;28.11;33.20;99136.53;5106059;28;8871;-75
2022/07/15 04:40:37;;;;;;;;;15.50;14.75;;;;;28.24;33.02;99134.56;5105708;28;8864;-75
2022/07/15 04:43:12;;;;;;;;;13.60;12.60;;;;;28.38;32.72;99139.66;5088964;28;9651;-76
2022/07/15 04:45:43;;;;;;;;;13.40;13.40;;;;;28.51;32.79;99138.69;5106266;28;8965;-76
2022/07/15 04:51:02;;;;;;;;;21.00;16.50;;;;;28.75;31.68;99134.03;5091883;28;8836;-75
2022/07/15 04:53:31;;;;;;;;;15.75;15.75;;;;;28.87;31.92;99136.66;5110147;28;8967;-77
2022/07/15 04:56:01;;;;;;;;;28.00;28.00;;;;;28.99;31.32;99135.63;5093280;28;8859;-75
2022/07/15 04:58:33;;;;;;;;;24.75;24.50;;;;;29.09;30.98;99136.56;5110408;28;8918;-76
2022/07/15 05:01:05;;;;;;;;;22.00;22.00;;;;;29.21;31.53;99137.41;5093074;28;8869;-75
2022/07/15 05:03:34;;;;;;;;;18.25;18.25;;;;;29.32;31.12;99125.72;5111622;28;8833;-74
2022/07/15 05:06:03;;;;;;;;;17.00;15.00;;;;;29.44;30.34;99123.84;5097958;28;8855;-76
2022/07/15 05:08:36;;;;;;;;;25.25;21.25;;;;;29.54;30.22;99124.75;5077239;28;9575;-78
2022/07/15 05:11:06;;;;;;;;;19.50;18.00;;;;;29.64;30.42;99133.72;5091342;28;8867;-75
2022/07/15 05:13:37;;;;;;;;;17.25;16.50;;;;;29.75;29.90;99130.13;5058041;28;9639;-77
2022/07/15 05:16:08;;;;;;;;;15.50;15.00;;;;;29.86;29.88;99134.56;5031468;28;8854;-76
2022/07/15 05:18:37;;;;;;;;;17.00;17.00;;;;;29.93;30.43;99123.13;5016258;28;9625;-74
2022/07/15 05:21:06;;;;;;;;;17.75;14.50;;;;;30.05;30.19;99131.94;5031564;28;8863;-72
2022/07/15 05:23:41;;;;;;;;;11.60;11.60;;;;;30.17;29.76;99127.34;5014909;28;8871;-74
2022/07/15 05:26:33;;;;;;;;;13.40;13.40;;;;;30.31;29.78;99132.31;5051282;28;8921;-74
2022/07/15 05:29:10;;;;;;;;;10.80;10.80;;;;;30.39;29.17;99128.13;5051097;28;8929;-73
2022/07/15 05:31:38;;;;;;;;;14.80;12.80;;;;;30.39;28.43;99122.75;5050026;28;8864;-74
2022/07/15 05:34:08;;;;;;;;;15.00;13.00;;;;;30.36;28.98;99131.97;5034596;28;8860;-74
2022/07/15 05:36:38;;;;;;;;;12.40;12.40;;;;;30.42;29.12;99127.88;5049525;28;8843;-73
2022/07/15 05:39:07;;;;;;;;;9.40;8.80;;;;;30.59;28.55;99134.44;5052387;28;8842;-73
2022/07/15 05:41:37;;;;;;;;;12.00;11.60;;;;;30.55;29.13;99135.66;5090781;28;8867;-73
2022/07/15 05:44:12;;;;;;;;;15.00;15.00;;;;;30.65;28.83;99140.09;5058213;28;8878;-73
2022/07/15 05:46:46;;;;;;;;;9.00;9.00;;;;;30.41;28.10;99145.84;5079400;27;8853;-73
2022/07/15 05:49:15;;;;;;;;;10.00;9.20;;;;;30.22;28.22;99148.44;5113658;28;8864;-73
2022/07/15 05:51:44;;;;;;;;;7.00;7.00;;;;;30.18;27.35;99153.25;5092884;28;8851;-72
2022/07/15 05:54:14;;;;;;;;;9.80;9.00;;;;;30.15;28.09;99158.88;5090168;28;8970;-74
2022/07/15 05:56:46;;;;;;;;;7.80;7.80;;;;;30.15;28.51;99161.56;5101772;28;8879;-74
2022/07/15 05:59:21;;;;;;;;;9.40;9.40;;;;;30.33;28.36;99160.97;5104956;28;8971;-71
2022/07/15 06:01:50;;;;;;;;;10.00;10.00;;;;;30.51;28.03;99164.69;5122686;27;9733;-73
2022/07/15 06:04:21;;;;;;;;;11.80;10.80;;;;;30.71;28.06;99169.13;5089821;28;8955;-74
2022/07/15 06:06:49;;;;;;;;;12.20;11.20;;;;;30.65;27.71;99171.53;5069007;28;9161;-74
2022/07/15 06:09:18;;;;;;;;;9.20;9.00;;;;;30.27;28.18;99165.88;5107762;28;8849;-77
2022/07/15 06:11:48;;;;;;;;;10.00;8.80;;;;;30.34;28.04;99165.34;5103581;27;8868;-74
2022/07/15 06:14:17;;;;;;;;;11.40;11.40;;;;;30.54;27.79;99166.28;5105937;28;8903;-72
2022/07/15 06:16:45;;;;;;;;;11.20;9.00;;;;;30.71;27.03;99157.53;5069110;28;9618;-73
2022/07/15 06:19:15;;;;;;;;;11.60;9.40;;;;;30.39;27.74;99171.19;5105636;28;9007;-76
2022/07/15 06:21:44;;;;;;;;;17.00;16.25;;;;;30.18;27.57;99172.06;5106734;28;8865;-75
2022/07/15 06:24:12;;;;;;;;;9.40;9.40;;;;;30.38;27.01;99170.34;5098339;28;8832;-72
2022/07/15 06:26:42;;;;;;;;;7.80;7.80;;;;;30.63;26.86;99168.97;5069695;27;8867;-72
2022/07/15 06:29:12;;;;;;;;;9.40;9.40;;;;;30.95;25.95;99173.31;5105201;28;9634;-73
2022/07/15 06:31:41;;;;;;;;;8.00;8.00;;;;;31.28;26.28;99166.63;5107126;28;8877;-73
2022/07/15 06:34:09;;;;;;;;;8.80;8.80;;;;;31.45;25.90;99169.63;5106014;28;8857;-73
2022/07/15 06:36:38;;;;;;;;;9.80;8.80;;;;;31.35;25.89;99171.47;5105100;28;9741;-73
2022/07/15 06:39:07;;;;;;;;;4.40;3.80;;;;;31.37;25.89;99164.94;5108452;28;8944;-74
2022/07/15 06:41:36;;;;;;;;;8.80;8.80;;;;;31.58;25.91;99155.88;5109459;28;8975;-75
2022/07/15 06:44:05;;;;;;;;;7.00;7.00;;;;;31.40;26.01;99169.19;5101814;28;8898;-73
2022/07/15 06:46:44;;;;;;;;;9.40;7.80;;;;;31.66;25.46;99175.72;5100345;28;8876;-74
2022/07/15 06:49:13;;;;;;;;;6.00;5.80;;;;;31.79;25.37;99179.94;5087241;28;8887;-73
2022/07/15 06:51:41;;;;;;;;;8.80;8.60;;;;;31.56;26.15;99191.06;5099520;28;9116;-72
2022/07/15 06:54:11;;;;;;;;;9.20;8.20;;;;;31.14;26.37;99199.41;5087058;28;8844;-73
2022/07/15 06:56:40;;;;;;;;;10.20;10.20;;;;;31.38;27.02;99198.13;5098564;28;8868;-71
2022/07/15 06:59:09;;;;;;;;;13.40;13.40;;;;;31.66;27.67;99196.41;5055978;28;8873;-74
2022/07/15 07:01:37;;;;;;;;;16.75;16.25;;;;;31.50;29.58;99196.19;5098544;28;8855;-72
2022/07/15 07:04:07;;;;;;;;;20.75;20.00;;;;;31.55;30.20;99196.59;5103796;28;8988;-72
2022/07/15 07:06:36;;;;;;;;;20.00;19.50;;;;;31.46;30.03;99190.19;5099763;28;8891;-73
2022/07/15 07:09:05;;;;;;;;;15.40;14.80;;;;;31.53;28.90;99195.88;5106519;28;8849;-73
2022/07/15 07:11:34;;;;;;;;;17.50;17.25;;;;;31.04;29.91;99198.53;5072024;28;8845;-72
2022/07/15 07:14:02;;;;;;;;;21.25;20.50;;;;;30.85;29.64;99194.81;5106390;28;9086;-72
2022/07/15 07:16:32;;;;;;;;;18.00;17.00;;;;;31.07;30.15;99188.34;5108069;28;8963;-71
2022/07/15 07:19:00;;;;;;;;;19.25;19.25;;;;;31.46;30.39;99185.69;5108275;28;8837;-73
2022/07/15 07:21:31;;;;;;;;;21.00;18.25;;;;;31.65;29.57;99184.78;5108165;28;8957;-73
2022/07/15 07:24:00;;;;;;;;;18.00;17.75;;;;;31.98;29.62;99187.97;5106451;28;8852;-72
2022/07/15 07:26:29;;;;;;;;;8.00;8.00;;;;;32.28;29.43;99179.81;5106413;28;8952;-73
2022/07/15 07:28:57;;;;;;;;;20.50;18.50;;;;;32.54;29.26;99175.41;5107610;28;8980;-72
2022/07/15 07:31:26;;;;;;;;;18.50;17.25;;;;;32.18;28.76;99182.56;5072278;28;8959;-73
2022/07/15 07:33:56;;;;;;;;;14.00;14.00;;;;;31.95;27.83;99188.28;5106266;28;8868;-72
2022/07/15 07:36:26;;;;;;;;;17.50;17.25;;;;;31.81;28.11;99189.56;5107445;28;9606;-73
2022/07/15 07:38:56;;;;;;;;;14.20;12.40;;;;;31.72;27.33;99185.09;5101339;28;9590;-73
2022/07/15 07:41:24;;;;;;;;;14.00;12.80;;;;;31.78;27.87;99176.41;5107940;28;8861;-72
2022/07/15 07:43:53;;;;;;;;;17.00;15.75;;;;;31.77;28.08;99180.06;5107302;28;9649;-74
2022/07/15 07:46:22;;;;;;;;;16.25;15.50;;;;;31.56;27.23;99184.81;5105662;28;8845;-73
2022/07/15 07:48:51;;;;;;;;;10.80;10.40;;;;;31.66;26.88;99172.16;5107071;28;8865;-74
2022/07/15 07:51:40;;;;;;;;;21.00;21.00;;;;;31.38;27.21;99181.94;5107360;28;8853;-72
2022/07/15 07:54:12;;;;;;;;;12.40;11.80;;;;;31.74;27.44;99187.59;5107029;28;9027;-75
2022/07/15 07:56:40;;;;;;;;;12.60;12.60;;;;;31.49;26.65;99189.91;5107272;28;9020;-74
2022/07/15 07:59:09;;;;;;;;;9.00;9.00;;;;;31.49;26.71;99189.91;5107159;28;8849;-72
2022/07/15 08:01:38;;;;;;;;;11.40;10.40;;;;;31.86;26.70;99184.59;5107705;28;8965;-73
2022/07/15 08:04:06;;;;;;;;;10.80;10.80;;;;;31.94;26.47;99193.81;5107258;28;8857;-73
2022/07/15 08:06:38;;;;;;;;;11.40;11.40;;;;;32.23;26.77;99186.50;5107100;28;8877;-74
2022/07/15 08:09:06;;;;;;;;;11.20;10.20;;;;;32.55;28.04;99195.16;5110598;28;8887;-77
2022/07/15 08:11:36;;;;;;;;;13.40;12.00;;;;;32.73;25.74;99189.81;5110251;28;8891;-75
2022/07/15 08:14:05;;;;;;;;;11.80;11.40;;;;;32.92;25.99;99186.16;5108710;28;8906;-73
2022/07/15 08:16:34;;;;;;;;;14.75;13.75;;;;;33.15;26.17;99187.41;5100016;28;8826;-71
2022/07/15 08:19:03;;;;;;;;;16.40;13.80;;;;;33.38;25.70;99187.81;5101162;28;8825;-73
2022/07/15 08:21:32;;;;;;;;;12.00;12.00;;;;;33.60;25.23;99185.59;5098419;28;8937;-70
2022/07/15 08:24:00;;;;;;;;;14.75;14.75;;;;;33.77;25.13;99184.72;5106332;28;8837;-72
2022/07/15 08:26:29;;;;;;;;;11.50;11.50;;;;;33.84;25.03;99184.94;5106530;28;8968;-72
2022/07/15 08:28:59;;;;;;;;;10.60;10.60;;;;;33.98;24.23;99187.06;5109549;28;8837;-71
2022/07/15 08:31:32;;;;;;;;;11.75;11.75;;;;;33.95;24.07;99195.50;5100219;28;8862;-72
2022/07/15 08:34:01;;;;;;;;;11.75;11.50;;;;;34.09;24.79;99191.34;5098322;28;8906;-71
2022/07/15 08:36:30;;;;;;;;;13.50;13.00;;;;;34.22;25.18;99192.78;5110765;28;8873;-71
2022/07/15 08:38:59;;;;;;;;;16.75;14.50;;;;;33.84;24.98;99194.91;5109974;28;8963;-71
2022/07/15 08:41:27;;;;;;;;;12.00;12.00;;;;;33.62;25.36;99193.56;5125943;27;8849;-72
2022/07/15 08:43:56;;;;;;;;;16.25;15.25;;;;;33.91;26.09;99193.25;5110049;28;8856;-72
2022/07/15 08:46:26;;;;;;;;;16.50;15.75;;;;;34.07;25.49;99192.53;5109992;28;9032;-72
2022/07/15 08:49:03;;;;;;;;;12.00;12.00;;;;;34.05;24.86;99189.97;5110725;28;8849;-73
2022/07/15 08:51:37;;;;;;;;;16.00;13.75;;;;;34.24;24.76;99198.91;5109823;28;8861;-72
2022/07/15 08:54:06;;;;;;;;;14.25;14.25;;;;;34.05;24.17;99197.25;5110241;28;8849;-71
2022/07/15 08:56:35;;;;;;;;;12.00;12.00;;;;;34.15;24.67;99193.41;5110024;28;8865;-72
2022/07/15 08:59:06;;;;;;;;;16.75;15.00;;;;;34.26;25.34;99199.59;5110401;28;8861;-72
2022/07/15 09:01:43;;;;;;;;;8.50;8.25;;;;;34.44;24.79;99194.91;5110178;28;8849;-73
2022/07/15 09:04:12;;;;;;;;;14.00;13.50;;;;;34.44;24.13;99199.50;5074772;28;8865;-72
2022/07/15 09:06:43;;;;;;;;;13.00;13.00;;;;;34.46;24.44;99198.34;5102721;28;8881;-72
2022/07/15 09:09:27;;;;;;;;;19.25;19.00;;;;;34.51;24.53;99189.72;5070795;28;8857;-71
2022/07/15 09:11:57;;;;;;;;;14.50;14.50;;;;;34.16;24.56;99195.16;5110078;28;8849;-71
2022/07/15 09:14:42;;;;;;;;;14.75;14.25;;;;;33.99;24.59;99196.03;5110164;28;8857;-71
2022/07/15 09:17:25;;;;;;;;;14.00;13.50;;;;;32.72;26.24;99197.06;5093044;28;8856;-70
2022/07/15 09:20:05;;;;;;;;;12.25;12.25;;;;;32.86;25.88;99193.00;5099072;28;8861;-72
2022/07/15 09:22:48;;;;;;;;;15.50;14.50;;;;;33.30;26.58;99194.97;5109379;28;9602;-72
2022/07/15 09:25:17;;;;;;;;;17.50;16.50;;;;;33.58;27.68;99195.72;5090227;28;8856;-73
2022/07/15 09:27:47;;;;;;;;;23.00;21.75;;;;;33.75;28.40;99197.56;5110164;28;8852;-74
2022/07/15 09:36:12;;;;;;;;;18.50;14.50;;;;;33.19;28.20;99196.06;5085179;28;8977;-74
2022/07/15 09:38:45;;;;;;;;;36.25;32.00;;;;;33.47;28.56;99193.25;5061294;27;8884;-76
2022/07/15 09:41:22;;;;;;;;;28.25;27.00;;;;;33.70;28.07;99196.34;5111512;27;8899;-78
2022/07/15 09:43:53;;;;;;;;;26.00;26.00;;;;;33.88;27.81;99199.84;5126560;27;8847;-75
2022/07/15 09:46:23;;;;;;;;;17.25;16.75;;;;;33.87;27.87;99198.13;5131134;27;8840;-75
2022/07/15 09:48:54;;;;;;;;;18.50;17.50;;;;;33.95;27.68;99200.91;5148059;27;8843;-75
2022/07/15 09:51:24;;;;;;;;;17.25;16.50;;;;;34.05;27.41;99199.97;5148680;27;8847;-74
2022/07/15 09:53:52;;;;;;;;;47.75;37.50;;;;;34.12;27.08;99198.28;5148440;27;8851;-76
2022/07/15 09:56:29;;;;;;;;;61.25;50.25;;;;;34.28;26.65;99194.88;5147780;27;8848;-75
2022/07/15 09:58:58;;;;;;;;;42.50;36.75;;;;;34.31;26.94;99191.81;5111115;27;9800;-76
2022/07/15 10:01:28;;;;;;;;;15.75;14.75;;;;;34.23;26.47;99195.34;5130184;27;8898;-76
2022/07/15 10:03:58;;;;;;;;;19.25;18.75;;;;;34.42;26.55;99199.66;5130664;27;8827;-74
2022/07/15 10:06:28;;;;;;;;;16.75;15.75;;;;;34.47;26.24;99196.47;5131672;27;9014;-74
2022/07/15 10:08:58;;;;;;;;;15.75;14.50;;;;;34.49;26.11;99198.00;5131035;27;9581;-76
2022/07/15 10:11:28;;;;;;;;;16.75;16.00;;;;;34.57;26.49;99195.31;5143838;27;8847;-74
2022/07/15 10:14:26;;;;;;;;;16.00;16.00;;;;;34.55;26.23;99194.63;5124119;27;8852;-75
2022/07/15 10:17:28;;;;;;;;;22.50;21.50;;;;;33.68;27.10;99193.78;5127636;27;8888;-74
2022/07/15 10:20:32;;;;;;;;;18.50;16.50;;;;;33.15;28.00;99198.22;5093400;27;8847;-75
2022/07/15 10:23:12;;;;;;;;;19.25;18.75;;;;;33.54;27.26;99192.47;5030692;28;8908;-74
2022/07/15 10:26:00;;;;;;;;;19.75;19.00;;;;;33.73;27.00;99185.22;5027111;28;8884;-77
2022/07/15 10:28:46;;;;;;;;;15.75;15.75;;;;;33.97;27.38;99187.19;5027136;28;8884;-78
2022/07/15 10:31:22;;;;;;;;;18.00;17.75;;;;;34.10;27.23;99187.66;5029178;28;9737;-78
2022/07/15 10:34:18;;;;;;;;;17.00;16.75;;;;;34.32;26.48;99186.25;5007785;28;8852;-76
2022/07/15 10:37:09;;;;;;;;;16.00;15.75;;;;;34.52;26.56;99186.84;5003592;28;8916;-77
2022/07/15 10:40:05;;;;;;;;;18.75;17.75;;;;;34.65;25.69;99193.63;5043958;28;8870;-76
2022/07/15 10:43:01;;;;;;;;;15.00;15.00;;;;;34.80;26.17;99186.59;5012044;28;9763;-77
2022/07/15 10:45:30;;;;;;;;;17.00;16.50;;;;;34.89;25.10;99180.19;5031444;28;8846;-76
2022/07/15 10:48:32;;;;;;;;;17.25;16.00;;;;;35.03;25.33;99185.97;5028437;28;9114;-77
2022/07/15 10:51:01;;;;;;;;;17.00;15.00;;;;;35.15;24.37;99180.06;4993168;28;8892;-78
2022/07/15 10:53:31;;;;;;;;;14.50;14.50;;;;;35.26;24.68;99181.63;4984336;28;8906;-78
2022/07/15 10:56:27;;;;;;;;;18.25;17.50;;;;;34.48;24.51;99181.91;4970025;28;8897;-76
2022/07/15 10:59:09;;;;;;;;;17.00;17.00;;;;;34.52;24.51;99173.31;4989743;28;8955;-78
2022/07/15 11:01:38;;;;;;;;;16.75;16.50;;;;;34.61;24.88;99173.31;5048863;28;8949;-77
2022/07/15 11:04:13;;;;;;;;;17.50;17.50;;;;;34.79;24.29;99179.50;5048897;28;8850;-77
2022/07/15 11:07:35;;;;;;;;;19.75;17.50;;;;;34.97;24.50;99178.50;5045646;28;8838;-78
2022/07/15 11:10:17;;;;;;;;;15.50;15.50;;;;;35.26;23.74;99176.22;4966998;28;8871;-80
2022/07/15 11:13:00;;;;;;;;;15.75;14.50;;;;;35.40;23.68;99173.84;4964011;28;8901;-77
2022/07/15 11:15:29;;;;;;;;;17.50;17.50;;;;;34.98;24.17;99172.09;4963047;28;8864;-77
2022/07/15 11:17:59;;;;;;;;;15.75;15.75;;;;;34.67;24.55;99180.78;4930875;28;8881;-76
2022/07/15 11:20:36;;;;;;;;;16.75;16.75;;;;;34.51;23.85;99168.88;4965914;28;8862;-77
2022/07/15 11:23:06;;;;;;;;;15.25;15.25;;;;;34.73;23.65;99161.22;5019929;28;8856;-77
2022/07/15 11:25:39;;;;;;;;;16.75;16.75;;;;;34.82;23.86;99168.34;5007890;28;8997;-75
2022/07/15 11:28:11;;;;;;;;;14.75;14.00;;;;;34.85;23.31;99162.56;4975921;28;8903;-79
2022/07/15 11:30:42;;;;;;;;;15.00;15.00;;;;;35.15;22.55;99174.63;5024845;28;9558;-78
2022/07/15 11:33:14;;;;;;;;;13.00;11.50;;;;;35.16;22.78;99172.75;5024533;28;8938;-76
2022/07/15 11:35:50;;;;;;;;;14.25;14.25;;;;;34.78;22.79;99172.38;5024676;28;8897;-76
2022/07/15 11:38:22;;;;;;;;;12.25;12.00;;;;;34.82;22.99;99164.75;5012085;28;8879;-74
2022/07/15 11:46:53;;;;;;;;;17.25;16.75;;;;;35.10;23.27;99158.03;5084508;28;8926;-73
2022/07/15 11:49:28;;;;;;;;;13.00;13.00;;;;;35.49;22.57;99159.25;5078510;28;8879;-74
2022/07/15 11:51:57;;;;;;;;;15.00;15.00;;;;;35.62;22.24;99148.72;5065051;28;8877;-74
2022/07/15 11:54:26;;;;;;;;;13.25;13.25;;;;;35.32;22.26;99150.28;5081172;28;8865;-76
2022/07/15 11:56:57;;;;;;;;;13.00;13.00;;;;;35.75;21.88;99150.06;5056929;28;8843;-75
2022/07/15 11:59:26;;;;;;;;;14.75;14.25;;;;;35.20;21.88;99163.34;5078312;28;8869;-75
2022/07/15 12:02:01;;;;;;;;;16.00;14.75;;;;;34.60;22.75;99160.81;5085283;28;8896;-74
2022/07/15 12:04:30;;;;;;;;;12.50;12.50;;;;;34.79;23.08;99154.28;5085135;28;8834;-76
2022/07/15 12:06:59;;;;;;;;;15.00;14.25;;;;;35.20;21.87;99162.47;5068646;28;8853;-77
2022/07/15 12:09:40;;;;;;;;;14.25;14.25;;;;;35.65;21.84;99153.81;5064622;28;8950;-78
2022/07/15 12:12:10;;;;;;;;;13.50;12.50;;;;;36.22;21.51;99149.28;5044691;28;9590;-79